Tiempo atmosférico en la estación meteorológica de Orozko, Bizkaia (270 m.)



Fecha
DESCASC
Temp. máxima en grados centígrados (hora)
DESCASC
Temp. mínima en grados centígrados (hora)
DESCASC
Temp. media en grados centígrados
DESCASC
Racha de viento máxima en m/sg (hora)
DESCASC
Velocidad máxima media en intervalos de 10 minutos(hora)
DESCASC
Precipitaciones diarias en mm
DESCASC
Precipitaciones de 00:00 a 06:00 en mm
DESCASC
Precipitaciones de 06:00 a 12:00 en mm
DESCASC
Precipitaciones de 12:00 a 18:00 en mm
DESCASC
Precipitaciones de 18:00 a 24:00 en mm
DESCASC
16-01-2020 16.9 (13:20) 12.5 (07:00) 14.7 21.11 (11:00) 8.61 (10:50) 0 0 0 0 0
15-01-2020 15.6 (15:50) 10.2 (19:00) 12.9 17.5 (04:00) 6.67 (03:10) 0 0 0 0 0
14-01-2020 14.8 (15:40) 9.8 (03:20) 12.3 16.94 (13:50) 6.67 (13:50) 0 0 0 0 0
13-01-2020 14.6 (15:50) 1.2 (05:00) 7.9 12.5 (21:00) 6.94 (14:30) 0 0 0 0 0
12-01-2020 12.1 (14:50) -0.6 (-00:0) 5.8 2.78 (15:00) 2.22 (16:20) 0 0 0 0 0
11-01-2020 12.2 (14:00) 1.1 (00:00) 6.6 3.61 (19:30) 2.22 (15:20) 0 0 0 0 0
10-01-2020 8.6 (13:00) 3.2 (00:00) 5.9 5.83 (05:00) 1.67 (05:20) 6.8 0.2 0.6 5.6 0.4
09-01-2020 16.2 (15:40) 4.4 (00:00) 10.3 14.72 (17:00) 6.11 (14:30) 2.2 0 0 0 2.2
08-01-2020 15.7 (14:50) 4.7 (00:00) 10.2 3.33 (17:50) 1.94 (15:00) 0 0 0 0 0
07-01-2020 14.9 (14:50) 1.8 (00:00) 8.3 3.06 (15:30) 1.94 (16:00) 0 0 0 0 0
06-01-2020 12.3 (14:50) -0.3 (00:00) 6 4.17 (17:50) 2.5 (17:50) 0 0 0 0 0
05-01-2020 11.3 (14:00) 1.4 (00:00) 6.4 3.61 (17:30) 2.22 (06:00) 0.2 0 0 0.2 0
04-01-2020 9.6 (14:30) 5.4 (00:00) 7.5 2.78 (12:10) 1.39 (16:00) 3.2 0.2 3 0 0
03-01-2020 8.6 (15:20) 1.6 (00:00) 5.1 2.78 (06:40) 1.11 (03:00) 0 0 0 0 0
02-01-2020 14.1 (15:10) -0.2 (00:00) 7 3.89 (13:00) 1.67 (23:30) 0 0 0 0 0
01-01-2020 12.5 (14:50) 0.9 (00:00) 6.7 3.33 (16:50) 1.67 (15:30) 0 0 0 0 0
31-12-2019 12.8 (14:50) -1.2 (-00:0) 5.8 3.06 (15:20) 1.94 (15:20) 0 0 0 0 0
30-12-2019 -- (--) -- (--) -- -- (--) -- (--) -- 0 0 -- 0
29-12-2019 14.6 (14:10) 1.5 (00:00) 8.1 3.33 (17:10) 1.94 (16:20) 0 0 0 0 0
28-12-2019 14.8 (14:40) 1.1 (00:00) 8 2.78 (18:50) 1.94 (15:40) 0 0 0 0 0
27-12-2019 12.6 (14:10) 0.8 (00:00) 6.7 3.61 (16:10) 2.22 (15:50) 0 0 0 0 0
26-12-2019 18.6 (00:10) 3.2 (00:00) 10.9 11.94 (00:30) 4.17 (00:30) 0 0 0 0 0
25-12-2019 22 (15:30) 5.4 (00:00) 13.7 10.28 (23:30) 4.17 (15:20) 0 0 0 0 0
24-12-2019 18.6 (14:50) 6.3 (00:00) 12.5 6.67 (13:40) 2.78 (13:40) 0 0 0 0 0
23-12-2019 14.5 (15:20) 4.7 (00:00) 9.6 9.17 (12:20) 3.33 (12:20) 0 0 0 0 0
22-12-2019 14.9 (13:50) 8.3 (00:00) 11.6 13.61 (01:00) 5.83 (01:20) 1 0 0 0.4 0.6
21-12-2019 19.5 (14:20) 5.1 (00:00) 12.3 16.39 (14:20) 7.22 (17:50) 1.4 0 0.2 1.2 0
20-12-2019 14 (00:30) 7 (00:00) 10.5 12.5 (02:00) 5 (02:00) 10.4 4.8 0.2 2.8 2.6

Gráficas

Temp. máximas Temp. mínimas Temp. medias Precipitaciones Rachas de viento máximas Velocidades máximas media en intervalos de 10 minutos

Datos horarios

Fecha y hora oficial Temperatura (ºC) Velocidad del viento (km/h) Dirección del viento Racha (km/h) Dirección de racha Precipitación (mm) Presión (hPa) Tendencia (hPa) Humedad (%)
2020-01-18 23:00:00 6.4 4 Sudeste 8 Sudeste 0.2 -- -- 96
2020-01-18 22:00:00 6.4 2 Este 9 Sur 0.4 -- -- 95
2020-01-18 21:00:00 6.5 4 Sur 16 Sudoeste 0.2 -- -- 93
2020-01-18 20:00:00 6.9 5 Sur 25 Oeste 2 -- -- 91
2020-01-18 19:00:00 7.9 0 Calma 21 Nordeste 1.4 -- -- 89
2020-01-18 18:00:00 10 10 Nordeste 48 Oeste 1 -- -- 83
2020-01-18 17:00:00 11.5 24 Oeste 48 Sudoeste 0 -- -- 69
2020-01-18 16:00:00 11.7 17 Oeste 32 Oeste 0 -- -- 65
2020-01-18 15:00:00 12.2 14 Oeste 28 Oeste 0 -- -- 58
2020-01-18 14:00:00 12.4 13 Oeste 56 Oeste 0 -- -- 55
2020-01-18 13:00:00 13.3 17 Oeste 53 Oeste 0 -- -- 53
2020-01-18 12:00:00 11.5 15 Sudoeste 53 Oeste 0 -- -- 56
2020-01-18 11:00:00 11.6 18 Oeste 53 Sudoeste 0.2 -- -- 52
2020-01-18 10:00:00 10.4 14 Oeste 36 Oeste 0 -- -- 57
2020-01-18 09:00:00 9.6 6 Oeste 23 Sudoeste 0 -- -- 59
2020-01-18 08:00:00 9.3 9 Sudoeste 28 Oeste 0 -- -- 61
2020-01-18 07:00:00 8.1 7 Oeste 22 Noroeste 0 -- -- 67
2020-01-18 06:00:00 8.5 5 Noroeste 29 Oeste 0 -- -- 69
2020-01-18 05:00:00 3.7 2 Sudoeste 9 Sudoeste 0 -- -- 98
2020-01-18 04:00:00 3.4 4 Sur 9 Sudoeste 0 -- -- 97
2020-01-18 03:00:00 2.9 0 Calma 7 Sudoeste 0 -- -- 96
2020-01-18 02:00:00 3 4 Sudoeste 7 Sudoeste 0 -- -- 96
2020-01-18 01:00:00 3.1 2 Sudeste 8 Sudoeste 0 -- -- 95
2020-01-18 00:00:00 3.7 3 Sudoeste 6 Sudoeste 0 -- -- 94
2020-01-17 23:00:00 4.3 3 Sur 7 Sudoeste 0 -- -- 94
2020-01-17 22:00:00 4.8 5 Sur 7 Sudoeste 0 -- -- 93
2020-01-17 21:00:00 5.1 3 Sur 7 Sur 0 -- -- 92
2020-01-17 20:00:00 5.1 5 Sudoeste 8 Sudoeste 0 -- -- 92
2020-01-17 19:00:00 5.7 4 Sur 10 Sur 0 -- -- 88
2020-01-17 18:00:00 7.1 8 Sur 12 Sur 0 -- -- 85
2020-01-17 17:00:00 9 3 Oeste 9 Oeste 0 -- -- 86
2020-01-17 16:00:00 10.5 7 Oeste 12 Oeste 0 -- -- 80
2020-01-17 15:00:00 8.9 2 Noroeste 13 Oeste 0 -- -- 90
2020-01-17 14:00:00 7.9 3 Sudeste 22 Nordeste 0.8 -- -- 91
2020-01-17 13:00:00 9.3 0 Calma -- -- 0 -- -- 89
2020-01-17 12:00:00 8.8 0 Calma 9 Sudoeste 0 -- -- 93
2020-01-17 11:00:00 7.7 5 Sur 17 Norte 0.8 -- -- 93
2020-01-17 10:00:00 7.8 5 Norte 14 Norte 0 -- -- 93
2020-01-17 09:00:00 8 5 Oeste 17 Noroeste 0 -- -- 93
2020-01-17 08:00:00 8.4 7 Noroeste 15 Noroeste 0 -- -- 94
2020-01-17 07:00:00 8.7 5 Sudoeste 13 Sudoeste 1 -- -- 92
2020-01-17 06:00:00 10.4 14 Noroeste 27 Oeste 2 -- -- 77
2020-01-17 05:00:00 12.2 8 Noroeste 23 Noroeste 0 -- -- 59
2020-01-17 04:00:00 11.6 3 Sudoeste 19 Nordeste 0 -- -- 59
2020-01-17 03:00:00 12.6 5 Este 37 Sur 0 -- -- 55
2020-01-17 02:00:00 13.1 11 Norte 33 Sudoeste 0 -- -- 54
2020-01-17 01:00:00 13.4 14 Oeste 37 Oeste 0 -- -- 53
2020-01-17 00:00:00 13.6 20 Oeste 57 Oeste 0 -- -- 52
2020-01-16 23:00:00 15 23 Oeste 54 Oeste 0 -- -- 42
2020-01-16 22:00:00 15.2 10 Sur 50 Oeste 0 -- -- 42
2020-01-16 21:00:00 15.9 25 Sudoeste 61 Sudoeste 0 -- -- 42
2020-01-16 20:00:00 16.3 17 Oeste 48 Sudoeste 0 -- -- 44
2020-01-16 19:00:00 16.1 24 Oeste 60 Sudoeste 0 -- -- 43
2020-01-16 18:00:00 16.1 21 Sudoeste 60 Oeste 0 -- -- 45
2020-01-16 17:00:00 16 17 Sudoeste 48 Sudoeste 0 -- -- 48
2020-01-16 16:00:00 16 12 Oeste 48 Oeste 0 -- -- 51
2020-01-16 15:00:00 15.5 12 Sudoeste 54 Sudoeste 0 -- -- 53
2020-01-16 14:00:00 16 9 Norte 38 Oeste 0 -- -- 50
2020-01-16 13:00:00 16.5 22 Oeste 47 Sudoeste 0 -- -- 51
2020-01-16 12:00:00 15.1 25 Oeste 62 Oeste 0 -- -- 56
2020-01-16 11:00:00 15.2 25 Oeste 76 Oeste 0 -- -- 55
2020-01-16 10:00:00 14.5 21 Oeste 56 Sudoeste 0 -- -- 57
2020-01-16 09:00:00 13.4 21 Oeste 46 Sudoeste 0 -- -- 60
2020-01-16 08:00:00 12.8 14 Sudoeste 38 Oeste 0 -- -- 61
2020-01-16 07:00:00 12.5 10 Sur 29 Oeste 0 -- -- 62
2020-01-16 06:00:00 13.5 17 Sudoeste 36 Oeste 0 -- -- 61
2020-01-16 05:00:00 13.8 12 Sudoeste 36 Sudoeste 0 -- -- 62
2020-01-16 04:00:00 13.3 13 Sudoeste 36 Sur 0 -- -- 64
2020-01-16 03:00:00 13.3 15 Oeste 41 Oeste 0 -- -- 65
2020-01-16 02:00:00 13.2 12 Oeste 46 Oeste 0 -- -- 64
2020-01-16 01:00:00 13.8 21 Oeste 48 Oeste 0 -- -- 59
2020-01-16 00:00:00 13.3 8 Sudoeste 35 Oeste 0 -- -- 59
2020-01-15 23:00:00 13.4 16 Oeste 47 Sudoeste 0 -- -- 57
2020-01-15 22:00:00 13.6 14 Sudoeste 40 Sudoeste 0 -- -- 56
2020-01-15 21:00:00 12.3 6 Sudoeste 33 Sudoeste 0 -- -- 59
2020-01-15 20:00:00 11.1 4 Sudoeste 19 Oeste 0 -- -- 66
2020-01-15 19:00:00 10.2 4 Noroeste 15 Sudoeste 0 -- -- 71
2020-01-15 18:00:00 11.9 5 Sudoeste 17 Norte 0 -- -- 65
2020-01-15 17:00:00 13.8 5 Oeste 36 Nordeste 0 -- -- 58
2020-01-15 16:00:00 15.3 9 Norte 29 Sudoeste 0 -- -- 52
2020-01-15 15:00:00 14.6 12 Sudoeste 28 Sur 0 -- -- 52
2020-01-15 14:00:00 13 7 Sudoeste 33 Oeste 0 -- -- 55
2020-01-15 13:00:00 13.3 7 Sur 34 Sur 0 -- -- 55
2020-01-15 12:00:00 12.6 12 Sudoeste 38 Sudoeste 0 -- -- 55
2020-01-15 11:00:00 12.4 10 Sur 31 Sur 0 -- -- 54
2020-01-15 10:00:00 12.1 11 Sur 32 Sur 0 -- -- 53
2020-01-15 09:00:00 12.4 13 Sudoeste 47 Sudoeste 0 -- -- 52
2020-01-15 08:00:00 12.5 15 Sudoeste 46 Sudoeste 0 -- -- 53
2020-01-15 07:00:00 12.2 15 Oeste 43 Oeste 0 -- -- 56
2020-01-15 06:00:00 12 14 Oeste 40 Oeste 0 -- -- 58
2020-01-15 05:00:00 12.5 8 Sur 47 Sudoeste 0 -- -- 58
2020-01-15 04:00:00 12.5 18 Sudoeste 63 Sur 0 -- -- 58
2020-01-15 03:00:00 11.9 18 Sudoeste 38 Sudoeste 0 -- -- 59
2020-01-15 02:00:00 11.8 13 Sudoeste 29 Sudoeste 0 -- -- 58
2020-01-15 01:00:00 12.4 13 Oeste 38 Oeste 0 -- -- 57
2020-01-15 00:00:00 12.4 11 Sudoeste 42 Sudoeste 0 -- -- 55
2020-01-14 23:00:00 12.4 11 Norte 49 Oeste 0 -- -- 53
2020-01-14 22:00:00 12.7 21 Sudoeste 55 Sudoeste 0 -- -- 50
2020-01-14 21:00:00 12.7 15 Sudoeste 54 Sur 0 -- -- 48
2020-01-14 20:00:00 12.5 12 Sudeste 57 Sur 0 -- -- 49
2020-01-14 19:00:00 12.7 17 Sur 60 Sudoeste 0 -- -- 47
2020-01-14 18:00:00 12.6 13 Sudeste 48 Sur 0 -- -- 49
2020-01-14 17:00:00 12.9 14 Sudeste 41 Sudoeste 0 -- -- 49
2020-01-14 16:00:00 14.6 15 Sudoeste 38 Sudoeste 0 -- -- 45
2020-01-14 15:00:00 14.3 10 Sudoeste 58 Sudoeste 0 -- -- 46
2020-01-14 14:00:00 13.9 18 Sudoeste 61 Oeste 0 -- -- 47
2020-01-14 13:00:00 14.1 14 Sur 56 Sudoeste 0 -- -- 50
2020-01-14 12:00:00 12.1 18 Oeste 53 Oeste 0 -- -- 55
2020-01-14 11:00:00 11.7 18 Noroeste 49 Noroeste 0 -- -- 56
2020-01-14 10:00:00 10.7 11 Norte 53 Noroeste 0 -- -- 59
2020-01-14 09:00:00 10.4 8 Este 32 Oeste 0 -- -- 58
2020-01-14 08:00:00 10.3 9 Sudoeste 27 Oeste 0 -- -- 59
2020-01-14 07:00:00 10.1 7 Sudoeste 33 Sudoeste 0 -- -- 59
2020-01-14 06:00:00 10.1 10 Sur 41 Oeste 0 -- -- 58
2020-01-14 05:00:00 9.9 17 Oeste 58 Sudoeste 0 -- -- 59
2020-01-14 04:00:00 10.1 12 Sur 44 Sur 0 -- -- 57
2020-01-14 03:00:00 9.9 11 Norte 39 Sudoeste 0 -- -- 56
2020-01-14 02:00:00 10.4 12 Norte 43 Oeste 0 -- -- 53
2020-01-14 01:00:00 11.3 14 Oeste 42 Oeste 0 -- -- 47
2020-01-14 00:00:00 10.1 9 Este 22 Este 0 -- -- 50
2020-01-13 23:00:00 9.8 9 Noroeste 35 Norte 0 -- -- 47
2020-01-13 22:00:00 9.3 6 Nordeste 35 Sudoeste 0 -- -- 41
2020-01-13 21:00:00 11 20 Oeste 45 Sudoeste 0 -- -- 32
2020-01-13 20:00:00 10.4 4 Sudoeste 28 Sur 0 -- -- 34
2020-01-13 19:00:00 11.7 8 Sudeste 44 Sudoeste 0 -- -- 30
2020-01-13 18:00:00 12.3 7 Norte 38 Norte 0 -- -- 31
2020-01-13 17:00:00 12.5 9 Nordeste 38 Norte 0 -- -- 30
2020-01-13 16:00:00 14.5 7 Sur 22 Sudoeste 0 -- -- 31
2020-01-13 15:00:00 14.1 10 Oeste 43 Oeste 0 -- -- 37
2020-01-13 14:00:00 13.5 18 Noroeste 37 Oeste 0 -- -- 35
2020-01-13 13:00:00 12.1 6 Norte 27 Noroeste 0 -- -- 41
2020-01-13 12:00:00 9.4 6 Norte 15 Norte 0 -- -- 64
2020-01-13 11:00:00 5 4 Sudoeste 9 Sur 0 -- -- 100
2020-01-13 10:00:00 2.5 4 Sur 8 Sudoeste 0 -- -- 100
2020-01-13 09:00:00 1.6 5 Sur 9 Sudoeste 0 -- -- 99
2020-01-13 08:00:00 1.5 3 Sur 6 Sur 0 -- -- 99
2020-01-13 07:00:00 1.5 4 Sur 8 Sudoeste 0 -- -- 98
2020-01-13 06:00:00 1.5 4 Sudoeste 9 Sudeste 0 -- -- 99
2020-01-13 05:00:00 1.2 4 Sur 9 Sudoeste 0 -- -- 98
2020-01-13 04:00:00 1.9 3 Sur 9 Sudoeste 0 -- -- 97
2020-01-13 03:00:00 2.1 3 Sur 11 Sudoeste 0 -- -- 98
2020-01-13 02:00:00 2.5 4 Sur 8 Sudoeste 0 -- -- 97
2020-01-13 01:00:00 2.5 2 Sudoeste 6 Sudoeste 0 -- -- 97
2020-01-13 00:00:00 2.7 0 Calma 5 Sudoeste 0 -- -- 96
2020-01-12 23:00:00 2.9 2 Sur 6 Sudoeste 0 -- -- 95
2020-01-12 22:00:00 3.4 3 Sudoeste 6 Sudoeste 0 -- -- 93
2020-01-12 21:00:00 3.8 0 Calma 6 Sur 0 -- -- 91
2020-01-12 20:00:00 4.7 3 Sudoeste 6 Sudoeste 0 -- -- 89
2020-01-12 19:00:00 5.7 4 Sudoeste 9 Sur 0 -- -- 86
2020-01-12 18:00:00 7 6 Sur 10 Sur 0 -- -- 84
2020-01-12 17:00:00 7.7 5 Sudoeste 10 Sudoeste 0 -- -- 84
2020-01-12 16:00:00 11.1 6 Sudoeste 10 Oeste 0 -- -- 68
2020-01-12 15:00:00 12.1 7 Oeste 10 Oeste 0 -- -- 57
2020-01-12 14:00:00 11.5 2 Oeste 6 Oeste 0 -- -- 63
2020-01-12 13:00:00 9.5 5 Oeste 8 Oeste 0 -- -- 70
2020-01-12 12:00:00 6.9 2 Sudoeste 4 Sudoeste 0 -- -- 88
2020-01-12 11:00:00 2.5 0 Calma 5 Sudoeste 0 -- -- 100
2020-01-12 10:00:00 -0.3 0 Calma 4 Sudoeste 0 -- -- 99
2020-01-12 09:00:00 -0.6 0 Calma 5 Sudoeste 0 -- -- 98
2020-01-12 08:00:00 -0.5 2 Sur 6 Sudoeste 0 -- -- 98
2020-01-12 07:00:00 -0.5 0 Calma 4 Sudoeste 0 -- -- 97
2020-01-12 06:00:00 -0.4 0 Calma 5 Sur 0 -- -- 97
2020-01-12 05:00:00 -0.2 0 Calma 5 Sur 0 -- -- 98
2020-01-12 04:00:00 -0.2 0 Calma 5 Sur 0 -- -- 97
2020-01-12 03:00:00 0.1 2 Sur 7 Sur 0 -- -- 96
2020-01-12 02:00:00 0.4 3 Sur 8 Sur 0 -- -- 96
2020-01-12 01:00:00 0.7 0 Calma 6 Sur 0 -- -- 95
2020-01-12 00:00:00 1.1 0 Calma 6 Sudoeste 0 -- -- 94
2020-01-11 23:00:00 1.4 0 Calma 6 Sudoeste 0 -- -- 93
2020-01-11 22:00:00 2.1 2 Sur 10 Sudoeste 0 -- -- 93
2020-01-11 21:00:00 2.9 3 Sudoeste 8 Sur 0 -- -- 91
2020-01-11 20:00:00 4 3 Sudoeste 13 Sur 0 -- -- 90
2020-01-11 19:00:00 5.4 3 Sudoeste 12 Sur 0 -- -- 90
2020-01-11 18:00:00 6.6 5 Sur 11 Sudoeste 0 -- -- 89
2020-01-11 17:00:00 7.7 5 Sudoeste 10 Sudoeste 0 -- -- 86
2020-01-11 16:00:00 10.1 7 Sudoeste 11 Oeste 0 -- -- 78
2020-01-11 15:00:00 11.4 6 Oeste 11 Oeste 0 -- -- 71
2020-01-11 14:00:00 12.2 5 Noroeste 7 Oeste 0 -- -- 70
2020-01-11 13:00:00 10.6 4 Norte 6 Noroeste 0 -- -- 83
2020-01-11 12:00:00 8.7 0 Calma 4 Sudoeste 0 -- -- 100
2020-01-11 11:00:00 6.2 0 Calma 4 Sur 0 -- -- 100
2020-01-11 10:00:00 5.2 0 Calma 4 Sur 0 -- -- 100
2020-01-11 09:00:00 4.5 2 Sur 4 Sudoeste 0 -- -- 100
2020-01-11 08:00:00 4.3 2 Sudoeste 4 Sudoeste 0 -- -- 100
2020-01-11 07:00:00 4.4 0 Calma 5 Sudoeste 0 -- -- 99
2020-01-11 06:00:00 4.3 3 Sudoeste 5 Sudoeste 0 -- -- 99
2020-01-11 05:00:00 4.1 2 Sur 6 Sudoeste 0 -- -- 99
2020-01-11 04:00:00 3.8 0 Calma 5 Sur 0 -- -- 99
2020-01-11 03:00:00 3.4 0 Calma 6 Sudoeste 0 -- -- 99
2020-01-11 02:00:00 3.4 3 Sur 10 Sur 0 -- -- 98
2020-01-11 01:00:00 2.6 2 Sudeste 10 Sur 0 -- -- 97
2020-01-11 00:00:00 3.2 3 Sur 8 Sudoeste 0 -- -- 97
2020-01-10 23:00:00 3.9 0 Calma 5 Sur 0.2 -- -- 96
2020-01-10 22:00:00 5.2 3 Sur 6 Sur 0 -- -- 96
2020-01-10 21:00:00 6.6 0 Calma 6 Sur 0.2 -- -- 97
2020-01-10 20:00:00 6.9 3 Sur 7 Sur 0 -- -- 97
2020-01-10 19:00:00 7.3 4 Sudoeste 10 Sudoeste 0 -- -- 96
2020-01-10 18:00:00 7.8 5 Sudoeste 10 Sur 0.2 -- -- 95
2020-01-10 17:00:00 8.4 2 Oeste 10 Norte 0 -- -- 94
2020-01-10 16:00:00 8.5 4 Oeste 12 Sur 0 -- -- 96
2020-01-10 15:00:00 8.3 6 Sudoeste 10 Sudoeste 1 -- -- 95
2020-01-10 14:00:00 8.1 3 Sudoeste 10 Norte 4.4 -- -- 93
2020-01-10 13:00:00 8.6 3 Norte 9 Norte 0 -- -- 93
2020-01-10 12:00:00 7.7 0 Calma 9 Norte 0.6 -- -- 94
2020-01-10 11:00:00 7.3 3 Este 9 Este 0 -- -- 95
2020-01-10 10:00:00 6.4 2 Sudeste 5 Sudeste 0 -- -- 96
2020-01-10 09:00:00 6.2 2 Sur 6 Sudoeste 0 -- -- 94
2020-01-10 08:00:00 6.2 2 Sudoeste 6 Sur 0 -- -- 93
2020-01-10 07:00:00 6.2 3 Sur 11 Sudoeste 0 -- -- 92
2020-01-10 06:00:00 6.3 4 Sudoeste 15 Nordeste 0 -- -- 94
2020-01-10 05:00:00 6.2 6 Nordeste 21 Nordeste 0 -- -- 97
2020-01-10 04:00:00 6.1 3 Sudeste 11 Sudeste 0.2 -- -- 97
2020-01-10 03:00:00 6.3 3 Sudoeste 13 Sur 0 -- -- 96
2020-01-10 02:00:00 6.6 2 Sur 11 Sur 0 -- -- 97
2020-01-10 01:00:00 6.6 3 Sur 14 Sur 0 -- -- 96
2020-01-10 00:00:00 6.7 5 Sur 16 Sur 0 -- -- 96
2020-01-09 23:00:00 8 4 Sur 7 Sur 0.4 -- -- 96
2020-01-09 22:00:00 8.1 3 Sur 9 Sudoeste 0.8 -- -- 95
2020-01-09 21:00:00 8.4 2 Sudeste 9 Sudoeste 0.6 -- -- 93
2020-01-09 20:00:00 9.4 3 Sudoeste 15 Nordeste 0.4 -- -- 86
2020-01-09 19:00:00 9.8 6 Sudoeste 13 Sudoeste 0 -- -- 89
2020-01-09 18:00:00 10.6 7 Sudoeste 29 Norte 0 -- -- 85
2020-01-09 17:00:00 13.8 18 Norte 53 Norte 0 -- -- 67
2020-01-09 16:00:00 15.4 18 Oeste 51 Sudoeste 0 -- -- 55
2020-01-09 15:00:00 15 13 Noroeste 49 Oeste 0 -- -- 54
2020-01-09 14:00:00 15.8 9 Noroeste 45 Sudoeste 0 -- -- 48
2020-01-09 13:00:00 15.2 14 Oeste 37 Oeste 0 -- -- 50
2020-01-09 12:00:00 13.2 5 Norte 30 Oeste 0 -- -- 59
2020-01-09 11:00:00 8.7 4 Oeste 11 Noroeste 0 -- -- 83
2020-01-09 10:00:00 5.8 4 Norte 11 Sudoeste 0 -- -- 92
2020-01-09 09:00:00 5.5 4 Este 13 Norte 0 -- -- 91
2020-01-09 08:00:00 5.5 3 Oeste 10 Oeste 0 -- -- 93
2020-01-09 07:00:00 5 4 Sudoeste 12 Sudoeste 0 -- -- 96
2020-01-09 06:00:00 4.4 5 Sur 12 Sur 0 -- -- 95
2020-01-09 05:00:00 4.9 3 Sur 13 Sur 0 -- -- 95
2020-01-09 04:00:00 5.4 4 Sudoeste 9 Sudoeste 0 -- -- 95
2020-01-09 03:00:00 5.5 3 Sudeste 11 Sur 0 -- -- 96
2020-01-09 02:00:00 5.1 4 Sur 8 Sur 0 -- -- 94
2020-01-09 01:00:00 5.5 4 Sudoeste 9 Sur 0 -- -- 94
2020-01-09 00:00:00 5.7 3 Sur 10 Sur 0 -- -- 94
2020-01-08 23:00:00 5.9 0 Calma 10 Sur 0 -- -- 92
2020-01-08 22:00:00 6.2 4 Sur 8 Sur 0 -- -- 90
2020-01-08 21:00:00 6.7 0 Calma 8 Sur 0 -- -- 88
2020-01-08 20:00:00 7.4 3 Sudoeste 8 Sudoeste 0 -- -- 86
2020-01-08 19:00:00 8.6 3 Sur 10 Sur 0 -- -- 81
2020-01-08 18:00:00 10.2 5 Sur 12 Sur 0 -- -- 78
2020-01-08 17:00:00 10.9 7 Sudoeste 12 Sudoeste 0 -- -- 78
2020-01-08 16:00:00 13.3 6 Sudoeste 11 Oeste 0 -- -- 68
2020-01-08 15:00:00 15.6 7 Oeste 11 Noroeste 0 -- -- 60
2020-01-08 14:00:00 14.9 5 Norte 9 Norte 0 -- -- 66
2020-01-08 13:00:00 13.1 4 Norte 8 Norte 0 -- -- 77
2020-01-08 12:00:00 11 2 Sudoeste 4 Sudoeste 0 -- -- 99
2020-01-08 11:00:00 7.8 0 Calma 6 Sur 0 -- -- 100
2020-01-08 10:00:00 5.3 2 Sudoeste 5 Sudoeste 0 -- -- 100
2020-01-08 09:00:00 4.8 0 Calma 4 Sur 0 -- -- 99
2020-01-08 08:00:00 5.1 2 Sur 4 Sur 0 -- -- 99
2020-01-08 07:00:00 5.1 0 Calma 5 Sur 0 -- -- 99
2020-01-08 06:00:00 5.5 0 Calma 4 Sudoeste 0 -- -- 99
2020-01-08 05:00:00 5.6 0 Calma 5 Sudoeste 0 -- -- 99
2020-01-08 04:00:00 5.9 0 Calma 4 Sudoeste 0 -- -- 99
2020-01-08 03:00:00 5.8 0 Calma 4 Sudoeste 0 -- -- 98
2020-01-08 02:00:00 5.9 0 Calma 4 Sudoeste 0 -- -- 98
2020-01-08 01:00:00 6.1 0 Calma 4 Sudoeste 0 -- -- 98
2020-01-08 00:00:00 6.1 2 Sur 5 Sudoeste 0 -- -- 97
2020-01-07 23:00:00 6.2 0 Calma 4 Sudoeste 0 -- -- 96
2020-01-07 22:00:00 6.6 3 Sudoeste 5 Sudoeste 0 -- -- 95
2020-01-07 21:00:00 7.1 3 Sudoeste 5 Sudoeste 0 -- -- 94
2020-01-07 20:00:00 7.7 3 Sur 7 Sudoeste 0 -- -- 92
2020-01-07 19:00:00 8.8 3 Sur 11 Sur 0 -- -- 90
2020-01-07 18:00:00 9.8 4 Sudoeste 9 Sudeste 0 -- -- 88
2020-01-07 17:00:00 10.5 4 Sudoeste 10 Sudoeste 0 -- -- 86
2020-01-07 16:00:00 12.9 7 Sudoeste 11 Oeste 0 -- -- 75
2020-01-07 15:00:00 14.9 4 Oeste 10 Oeste 0 -- -- 69
2020-01-07 14:00:00 14.1 3 Noroeste 6 Oeste 0 -- -- 69
2020-01-07 13:00:00 12.6 3 Sudoeste 4 Sudoeste 0 -- -- 71
2020-01-07 12:00:00 8.8 0 Calma 4 Sudeste 0 -- -- 100
2020-01-07 11:00:00 5.3 2 Sur 5 Sur 0 -- -- 100
2020-01-07 10:00:00 2.7 2 Sudeste 8 Sur 0 -- -- 100
2020-01-07 09:00:00 1.9 3 Sur 6 Sur 0 -- -- 99
2020-01-07 08:00:00 2 0 Calma 4 Sur 0 -- -- 99
2020-01-07 07:00:00 2.2 3 Sur 7 Sur 0 -- -- 99
2020-01-07 06:00:00 2.1 3 Sur 6 Sur 0 -- -- 98
2020-01-07 05:00:00 2 4 Sur 7 Sudoeste 0 -- -- 98
2020-01-07 04:00:00 2.2 4 Sudoeste 6 Sur 0 -- -- 98
2020-01-07 03:00:00 2.1 4 Sur 8 Sudoeste 0 -- -- 98
2020-01-07 02:00:00 2.3 2 Sudoeste 6 Sur 0 -- -- 97
2020-01-07 01:00:00 2.3 3 Sur 6 Sur 0 -- -- 97
2020-01-07 00:00:00 2.6 3 Sudoeste 5 Sudoeste 0 -- -- 95
2020-01-06 23:00:00 3.5 4 Sudoeste 6 Sudoeste 0 -- -- 95
2020-01-06 22:00:00 4 0 Calma 10 Sudeste 0 -- -- 93
2020-01-06 21:00:00 4.7 4 Sur 8 Sur 0 -- -- 93
2020-01-06 20:00:00 4.3 3 Sur 14 Sudoeste 0 -- -- 89
2020-01-06 19:00:00 5.3 6 Sur 12 Sudoeste 0 -- -- 88
2020-01-06 18:00:00 7.1 5 Sudoeste 15 Sur 0 -- -- 82
2020-01-06 17:00:00 8.5 3 Sudoeste 10 Sudoeste 0 -- -- 78
2020-01-06 16:00:00 10.1 6 Oeste 10 Oeste 0 -- -- 72
2020-01-06 15:00:00 12.2 5 Oeste 11 Oeste 0 -- -- 61
2020-01-06 14:00:00 12 6 Oeste 11 Oeste 0 -- -- 59
2020-01-06 13:00:00 10.2 3 Norte 8 Sudoeste 0 -- -- 62
2020-01-06 12:00:00 7.9 3 Sudoeste 12 Sur 0 -- -- 82
2020-01-06 11:00:00 2.9 3 Sudoeste 8 Sudoeste 0 -- -- 100
2020-01-06 10:00:00 0.1 3 Sur 6 Sudoeste 0 -- -- 99